sensor_id;sensor_type;location;lat;lon;timestamp;P1;durP1;ratioP1;P2;durP2;ratioP2
62535;SDS011;63050;47.514;18.920;2023-06-19T00:01:20;8.20;;;5.10;;
62535;SDS011;63050;47.514;18.920;2023-06-19T00:06:21;5.80;;;5.20;;
62535;SDS011;63050;47.514;18.920;2023-06-19T00:11:23;5.70;;;5.10;;
62535;SDS011;63050;47.514;18.920;2023-06-19T00:16:24;6.00;;;5.40;;
62535;SDS011;63050;47.514;18.920;2023-06-19T00:21:26;7.10;;;5.30;;
62535;SDS011;63050;47.514;18.920;2023-06-19T00:26:28;6.10;;;5.40;;
62535;SDS011;63050;47.514;18.920;2023-06-19T00:31:29;6.40;;;5.20;;
62535;SDS011;63050;47.514;18.920;2023-06-19T00:36:31;6.70;;;5.10;;
62535;SDS011;63050;47.514;18.920;2023-06-19T00:41:34;5.50;;;4.90;;
62535;SDS011;63050;47.514;18.920;2023-06-19T00:46:37;6.20;;;5.30;;
62535;SDS011;63050;47.514;18.920;2023-06-19T00:51:39;5.30;;;4.80;;
62535;SDS011;63050;47.514;18.920;2023-06-19T00:56:40;7.10;;;5.10;;
62535;SDS011;63050;47.514;18.920;2023-06-19T01:01:42;5.60;;;4.70;;
62535;SDS011;63050;47.514;18.920;2023-06-19T01:06:53;6.10;;;5.50;;
62535;SDS011;63050;47.514;18.920;2023-06-19T01:12:07;6.00;;;5.20;;
62535;SDS011;63050;47.514;18.920;2023-06-19T01:17:12;6.70;;;5.10;;
62535;SDS011;63050;47.514;18.920;2023-06-19T01:22:32;5.50;;;5.00;;
62535;SDS011;63050;47.514;18.920;2023-06-19T01:27:33;6.10;;;5.40;;
62535;SDS011;63050;47.514;18.920;2023-06-19T01:37:49;6.20;;;5.50;;
62535;SDS011;63050;47.514;18.920;2023-06-19T01:42:53;5.70;;;4.90;;
62535;SDS011;63050;47.514;18.920;2023-06-19T01:47:55;6.10;;;5.00;;
62535;SDS011;63050;47.514;18.920;2023-06-19T01:52:57;6.20;;;4.60;;
62535;SDS011;63050;47.514;18.920;2023-06-19T01:57:58;6.20;;;5.40;;
62535;SDS011;63050;47.514;18.920;2023-06-19T02:03:00;6.10;;;5.30;;
62535;SDS011;63050;47.514;18.920;2023-06-19T02:08:02;6.70;;;5.00;;
62535;SDS011;63050;47.514;18.920;2023-06-19T02:13:04;5.90;;;4.90;;
62535;SDS011;63050;47.514;18.920;2023-06-19T02:18:06;5.80;;;5.10;;
62535;SDS011;63050;47.514;18.920;2023-06-19T02:23:07;5.50;;;4.70;;
62535;SDS011;63050;47.514;18.920;2023-06-19T02:28:07;6.60;;;5.20;;
62535;SDS011;63050;47.514;18.920;2023-06-19T02:33:08;7.40;;;5.10;;
62535;SDS011;63050;47.514;18.920;2023-06-19T02:38:09;5.90;;;4.60;;
62535;SDS011;63050;47.514;18.920;2023-06-19T02:43:12;8.30;;;5.30;;
62535;SDS011;63050;47.514;18.920;2023-06-19T02:48:16;6.80;;;4.60;;
62535;SDS011;63050;47.514;18.920;2023-06-19T02:53:18;6.80;;;5.00;;
62535;SDS011;63050;47.514;18.920;2023-06-19T02:58:19;6.80;;;5.30;;
62535;SDS011;63050;47.514;18.920;2023-06-19T03:03:20;5.60;;;4.30;;
62535;SDS011;63050;47.514;18.920;2023-06-19T03:08:24;6.00;;;5.20;;
62535;SDS011;63050;47.514;18.920;2023-06-19T03:13:25;6.70;;;5.10;;
62535;SDS011;63050;47.514;18.920;2023-06-19T03:18:26;6.80;;;5.30;;
62535;SDS011;63050;47.514;18.920;2023-06-19T03:23:27;6.60;;;5.20;;
62535;SDS011;63050;47.514;18.920;2023-06-19T03:28:28;7.60;;;5.40;;
62535;SDS011;63050;47.514;18.920;2023-06-19T03:33:29;6.70;;;5.50;;
62535;SDS011;63050;47.514;18.920;2023-06-19T03:38:31;6.30;;;5.70;;
62535;SDS011;63050;47.514;18.920;2023-06-19T03:43:32;7.70;;;5.60;;
62535;SDS011;63050;47.514;18.920;2023-06-19T03:48:33;7.90;;;5.80;;
62535;SDS011;63050;47.514;18.920;2023-06-19T03:53:35;6.60;;;5.50;;
62535;SDS011;63050;47.514;18.920;2023-06-19T03:58:36;7.40;;;6.60;;
62535;SDS011;63050;47.514;18.920;2023-06-19T04:03:37;6.30;;;5.20;;
62535;SDS011;63050;47.514;18.920;2023-06-19T04:08:38;9.50;;;5.60;;
62535;SDS011;63050;47.514;18.920;2023-06-19T04:13:39;6.30;;;5.20;;
62535;SDS011;63050;47.514;18.920;2023-06-19T04:18:40;6.20;;;5.40;;
62535;SDS011;63050;47.514;18.920;2023-06-19T04:23:40;5.90;;;5.20;;
62535;SDS011;63050;47.514;18.920;2023-06-19T04:28:41;9.00;;;5.20;;
62535;SDS011;63050;47.514;18.920;2023-06-19T04:33:42;7.10;;;5.90;;
62535;SDS011;63050;47.514;18.920;2023-06-19T04:38:44;5.80;;;5.20;;
62535;SDS011;63050;47.514;18.920;2023-06-19T04:43:45;11.70;;;5.50;;
62535;SDS011;63050;47.514;18.920;2023-06-19T04:48:46;16.80;;;6.00;;
62535;SDS011;63050;47.514;18.920;2023-06-19T04:53:51;6.20;;;5.50;;
62535;SDS011;63050;47.514;18.920;2023-06-19T04:58:51;6.50;;;5.50;;
62535;SDS011;63050;47.514;18.920;2023-06-19T05:03:55;6.90;;;5.70;;
62535;SDS011;63050;47.514;18.920;2023-06-19T05:08:56;7.80;;;5.90;;
62535;SDS011;63050;47.514;18.920;2023-06-19T05:13:57;9.70;;;6.90;;
62535;SDS011;63050;47.514;18.920;2023-06-19T05:18:58;8.70;;;6.30;;
62535;SDS011;63050;47.514;18.920;2023-06-19T05:23:59;10.40;;;5.90;;
62535;SDS011;63050;47.514;18.920;2023-06-19T05:29:00;7.10;;;5.90;;
62535;SDS011;63050;47.514;18.920;2023-06-19T05:34:02;9.30;;;5.60;;
62535;SDS011;63050;47.514;18.920;2023-06-19T05:39:03;6.40;;;5.60;;
62535;SDS011;63050;47.514;18.920;2023-06-19T05:44:04;7.90;;;5.40;;
62535;SDS011;63050;47.514;18.920;2023-06-19T05:49:05;7.50;;;5.60;;
62535;SDS011;63050;47.514;18.920;2023-06-19T05:54:06;10.10;;;5.80;;
62535;SDS011;63050;47.514;18.920;2023-06-19T05:59:06;7.40;;;5.60;;
62535;SDS011;63050;47.514;18.920;2023-06-19T06:04:07;7.20;;;5.80;;
62535;SDS011;63050;47.514;18.920;2023-06-19T06:09:08;6.20;;;5.50;;
62535;SDS011;63050;47.514;18.920;2023-06-19T06:14:12;6.40;;;5.30;;
62535;SDS011;63050;47.514;18.920;2023-06-19T06:19:13;6.50;;;5.00;;
62535;SDS011;63050;47.514;18.920;2023-06-19T06:24:14;10.10;;;5.50;;
62535;SDS011;63050;47.514;18.920;2023-06-19T06:29:14;6.70;;;5.70;;
62535;SDS011;63050;47.514;18.920;2023-06-19T06:34:15;7.00;;;5.70;;
62535;SDS011;63050;47.514;18.920;2023-06-19T06:39:16;9.40;;;5.60;;
62535;SDS011;63050;47.514;18.920;2023-06-19T06:44:17;7.80;;;5.50;;
62535;SDS011;63050;47.514;18.920;2023-06-19T06:49:18;13.80;;;7.80;;
62535;SDS011;63050;47.514;18.920;2023-06-19T06:54:18;10.90;;;5.00;;
62535;SDS011;63050;47.514;18.920;2023-06-19T06:59:19;8.30;;;5.50;;
62535;SDS011;63050;47.514;18.920;2023-06-19T07:04:20;8.40;;;5.50;;
62535;SDS011;63050;47.514;18.920;2023-06-19T07:09:21;9.70;;;4.60;;
62535;SDS011;63050;47.514;18.920;2023-06-19T07:14:22;8.10;;;5.30;;
62535;SDS011;63050;47.514;18.920;2023-06-19T07:19:23;6.40;;;4.70;;
62535;SDS011;63050;47.514;18.920;2023-06-19T07:24:23;5.60;;;4.10;;
62535;SDS011;63050;47.514;18.920;2023-06-19T07:29:24;5.30;;;4.20;;
62535;SDS011;63050;47.514;18.920;2023-06-19T07:34:26;5.90;;;4.30;;
62535;SDS011;63050;47.514;18.920;2023-06-19T07:39:27;7.10;;;4.40;;
62535;SDS011;63050;47.514;18.920;2023-06-19T07:44:28;6.80;;;3.90;;
62535;SDS011;63050;47.514;18.920;2023-06-19T07:49:29;8.00;;;3.90;;
62535;SDS011;63050;47.514;18.920;2023-06-19T07:54:30;5.90;;;4.30;;
62535;SDS011;63050;47.514;18.920;2023-06-19T07:59:30;6.20;;;5.10;;
62535;SDS011;63050;47.514;18.920;2023-06-19T08:04:31;5.40;;;4.60;;
62535;SDS011;63050;47.514;18.920;2023-06-19T08:09:32;6.10;;;4.60;;
62535;SDS011;63050;47.514;18.920;2023-06-19T08:14:33;11.30;;;4.80;;
62535;SDS011;63050;47.514;18.920;2023-06-19T08:19:34;9.30;;;4.30;;
62535;SDS011;63050;47.514;18.920;2023-06-19T08:24:36;9.40;;;4.50;;
62535;SDS011;63050;47.514;18.920;2023-06-19T08:29:39;5.50;;;4.60;;
62535;SDS011;63050;47.514;18.920;2023-06-19T08:34:40;6.20;;;4.50;;
62535;SDS011;63050;47.514;18.920;2023-06-19T08:39:42;6.20;;;4.40;;
62535;SDS011;63050;47.514;18.920;2023-06-19T08:44:43;7.10;;;4.90;;
62535;SDS011;63050;47.514;18.920;2023-06-19T08:49:44;6.50;;;4.40;;
62535;SDS011;63050;47.514;18.920;2023-06-19T08:54:45;8.10;;;4.60;;
62535;SDS011;63050;47.514;18.920;2023-06-19T08:59:49;5.30;;;4.40;;
62535;SDS011;63050;47.514;18.920;2023-06-19T09:04:51;5.70;;;4.50;;
62535;SDS011;63050;47.514;18.920;2023-06-19T09:09:51;5.10;;;3.90;;
62535;SDS011;63050;47.514;18.920;2023-06-19T09:14:52;5.40;;;3.80;;
62535;SDS011;63050;47.514;18.920;2023-06-19T09:19:54;7.00;;;5.10;;
62535;SDS011;63050;47.514;18.920;2023-06-19T09:24:59;6.70;;;4.40;;
62535;SDS011;63050;47.514;18.920;2023-06-19T09:30:02;10.40;;;4.40;;
62535;SDS011;63050;47.514;18.920;2023-06-19T09:35:03;5.50;;;4.30;;
62535;SDS011;63050;47.514;18.920;2023-06-19T09:40:05;12.00;;;4.60;;
62535;SDS011;63050;47.514;18.920;2023-06-19T09:45:11;5.10;;;4.00;;
62535;SDS011;63050;47.514;18.920;2023-06-19T09:50:15;4.90;;;3.90;;
62535;SDS011;63050;47.514;18.920;2023-06-19T09:55:21;7.40;;;4.20;;
62535;SDS011;63050;47.514;18.920;2023-06-19T10:00:24;6.30;;;3.90;;
62535;SDS011;63050;47.514;18.920;2023-06-19T10:05:31;4.40;;;3.70;;
62535;SDS011;63050;47.514;18.920;2023-06-19T10:10:32;4.30;;;3.70;;
62535;SDS011;63050;47.514;18.920;2023-06-19T10:15:39;4.90;;;3.70;;
62535;SDS011;63050;47.514;18.920;2023-06-19T10:20:42;9.60;;;3.60;;
62535;SDS011;63050;47.514;18.920;2023-06-19T10:25:45;5.00;;;3.60;;
62535;SDS011;63050;47.514;18.920;2023-06-19T10:30:57;4.40;;;3.50;;
62535;SDS011;63050;47.514;18.920;2023-06-19T10:35:59;5.10;;;3.40;;
62535;SDS011;63050;47.514;18.920;2023-06-19T10:41:21;4.90;;;3.30;;
62535;SDS011;63050;47.514;18.920;2023-06-19T10:46:28;5.50;;;3.90;;
62535;SDS011;63050;47.514;18.920;2023-06-19T10:56:31;6.20;;;3.70;;
62535;SDS011;63050;47.514;18.920;2023-06-19T11:01:33;5.10;;;3.90;;
62535;SDS011;63050;47.514;18.920;2023-06-19T11:06:38;6.30;;;4.00;;
62535;SDS011;63050;47.514;18.920;2023-06-19T11:16:46;4.50;;;4.00;;
62535;SDS011;63050;47.514;18.920;2023-06-19T11:21:48;11.80;;;4.00;;
62535;SDS011;63050;47.514;18.920;2023-06-19T11:26:50;6.30;;;4.00;;
62535;SDS011;63050;47.514;18.920;2023-06-19T11:32:04;9.10;;;3.90;;
62535;SDS011;63050;47.514;18.920;2023-06-19T11:37:13;5.90;;;4.00;;
62535;SDS011;63050;47.514;18.920;2023-06-19T11:42:15;4.20;;;3.40;;
62535;SDS011;63050;47.514;18.920;2023-06-19T11:52:19;5.40;;;3.80;;
62535;SDS011;63050;47.514;18.920;2023-06-19T11:57:21;5.20;;;3.30;;
62535;SDS011;63050;47.514;18.920;2023-06-19T12:02:22;4.50;;;3.80;;
62535;SDS011;63050;47.514;18.920;2023-06-19T12:07:22;6.30;;;3.50;;
62535;SDS011;63050;47.514;18.920;2023-06-19T12:12:23;5.80;;;4.10;;
62535;SDS011;63050;47.514;18.920;2023-06-19T12:17:26;4.30;;;3.50;;
62535;SDS011;63050;47.514;18.920;2023-06-19T12:22:27;4.40;;;3.70;;
62535;SDS011;63050;47.514;18.920;2023-06-19T12:27:28;6.90;;;3.90;;
62535;SDS011;63050;47.514;18.920;2023-06-19T12:32:29;7.40;;;3.90;;
62535;SDS011;63050;47.514;18.920;2023-06-19T12:37:30;4.00;;;3.60;;
62535;SDS011;63050;47.514;18.920;2023-06-19T12:42:31;4.90;;;3.90;;
62535;SDS011;63050;47.514;18.920;2023-06-19T12:47:32;6.90;;;3.90;;
62535;SDS011;63050;47.514;18.920;2023-06-19T12:52:33;5.80;;;4.50;;
62535;SDS011;63050;47.514;18.920;2023-06-19T12:57:34;4.80;;;4.10;;
62535;SDS011;63050;47.514;18.920;2023-06-19T13:02:35;4.10;;;3.60;;
62535;SDS011;63050;47.514;18.920;2023-06-19T13:07:35;5.00;;;4.00;;
62535;SDS011;63050;47.514;18.920;2023-06-19T13:12:36;5.30;;;4.20;;
62535;SDS011;63050;47.514;18.920;2023-06-19T13:17:37;5.20;;;4.40;;
62535;SDS011;63050;47.514;18.920;2023-06-19T13:22:38;4.60;;;4.10;;
62535;SDS011;63050;47.514;18.920;2023-06-19T13:27:39;6.90;;;4.20;;
62535;SDS011;63050;47.514;18.920;2023-06-19T13:32:40;6.90;;;4.40;;
62535;SDS011;63050;47.514;18.920;2023-06-19T13:37:41;5.00;;;4.10;;
62535;SDS011;63050;47.514;18.920;2023-06-19T13:42:42;5.50;;;4.10;;
62535;SDS011;63050;47.514;18.920;2023-06-19T13:47:43;6.00;;;4.20;;
62535;SDS011;63050;47.514;18.920;2023-06-19T13:52:44;5.50;;;3.90;;
62535;SDS011;63050;47.514;18.920;2023-06-19T13:57:46;7.80;;;4.30;;
62535;SDS011;63050;47.514;18.920;2023-06-19T14:02:47;10.80;;;4.50;;
62535;SDS011;63050;47.514;18.920;2023-06-19T14:07:48;5.50;;;4.10;;
62535;SDS011;63050;47.514;18.920;2023-06-19T14:12:48;5.80;;;4.30;;
62535;SDS011;63050;47.514;18.920;2023-06-19T14:17:49;6.70;;;4.50;;
62535;SDS011;63050;47.514;18.920;2023-06-19T14:22:50;4.90;;;4.20;;
62535;SDS011;63050;47.514;18.920;2023-06-19T14:27:51;5.30;;;4.40;;
62535;SDS011;63050;47.514;18.920;2023-06-19T14:32:52;6.20;;;4.60;;
62535;SDS011;63050;47.514;18.920;2023-06-19T14:37:52;7.00;;;4.20;;
62535;SDS011;63050;47.514;18.920;2023-06-19T14:42:53;5.90;;;4.40;;
62535;SDS011;63050;47.514;18.920;2023-06-19T14:47:54;5.20;;;4.60;;
62535;SDS011;63050;47.514;18.920;2023-06-19T14:52:55;5.50;;;4.00;;
62535;SDS011;63050;47.514;18.920;2023-06-19T14:57:55;4.80;;;4.30;;
62535;SDS011;63050;47.514;18.920;2023-06-19T15:02:56;9.90;;;4.50;;
62535;SDS011;63050;47.514;18.920;2023-06-19T15:07:57;4.80;;;4.30;;
62535;SDS011;63050;47.514;18.920;2023-06-19T15:12:58;5.30;;;4.00;;
62535;SDS011;63050;47.514;18.920;2023-06-19T15:17:58;6.50;;;4.20;;
62535;SDS011;63050;47.514;18.920;2023-06-19T15:22:59;6.00;;;4.50;;
62535;SDS011;63050;47.514;18.920;2023-06-19T15:28:00;5.40;;;4.10;;
62535;SDS011;63050;47.514;18.920;2023-06-19T15:33:01;6.40;;;4.20;;
62535;SDS011;63050;47.514;18.920;2023-06-19T15:38:02;7.30;;;4.10;;
62535;SDS011;63050;47.514;18.920;2023-06-19T15:43:04;5.70;;;4.40;;
62535;SDS011;63050;47.514;18.920;2023-06-19T15:48:05;5.80;;;4.50;;
62535;SDS011;63050;47.514;18.920;2023-06-19T15:53:06;6.40;;;4.30;;
62535;SDS011;63050;47.514;18.920;2023-06-19T15:58:08;7.00;;;4.40;;
62535;SDS011;63050;47.514;18.920;2023-06-19T16:03:09;6.40;;;4.40;;
62535;SDS011;63050;47.514;18.920;2023-06-19T16:08:09;4.50;;;4.00;;
62535;SDS011;63050;47.514;18.920;2023-06-19T16:13:11;5.50;;;4.60;;
62535;SDS011;63050;47.514;18.920;2023-06-19T16:18:13;9.50;;;4.70;;
62535;SDS011;63050;47.514;18.920;2023-06-19T16:23:14;5.00;;;3.80;;
62535;SDS011;63050;47.514;18.920;2023-06-19T16:28:15;7.60;;;4.10;;
62535;SDS011;63050;47.514;18.920;2023-06-19T16:33:16;4.90;;;4.40;;
62535;SDS011;63050;47.514;18.920;2023-06-19T16:38:17;6.60;;;4.50;;
62535;SDS011;63050;47.514;18.920;2023-06-19T16:43:18;7.70;;;5.70;;
62535;SDS011;63050;47.514;18.920;2023-06-19T16:48:19;9.20;;;5.10;;
62535;SDS011;63050;47.514;18.920;2023-06-19T16:53:20;22.40;;;10.70;;
62535;SDS011;63050;47.514;18.920;2023-06-19T16:58:21;11.80;;;5.30;;
62535;SDS011;63050;47.514;18.920;2023-06-19T17:03:23;9.60;;;6.00;;
62535;SDS011;63050;47.514;18.920;2023-06-19T17:08:24;11.70;;;5.40;;
62535;SDS011;63050;47.514;18.920;2023-06-19T17:13:25;12.60;;;5.50;;
62535;SDS011;63050;47.514;18.920;2023-06-19T17:18:25;5.50;;;4.90;;
62535;SDS011;63050;47.514;18.920;2023-06-19T17:23:26;11.70;;;5.00;;
62535;SDS011;63050;47.514;18.920;2023-06-19T17:28:27;5.80;;;4.70;;
62535;SDS011;63050;47.514;18.920;2023-06-19T17:33:28;8.40;;;5.10;;
62535;SDS011;63050;47.514;18.920;2023-06-19T17:38:29;7.00;;;5.10;;
62535;SDS011;63050;47.514;18.920;2023-06-19T17:43:29;8.00;;;5.10;;
62535;SDS011;63050;47.514;18.920;2023-06-19T17:48:31;7.80;;;5.20;;
62535;SDS011;63050;47.514;18.920;2023-06-19T17:53:31;10.80;;;5.30;;
62535;SDS011;63050;47.514;18.920;2023-06-19T17:58:33;16.90;;;5.50;;
62535;SDS011;63050;47.514;18.920;2023-06-19T18:03:34;9.20;;;5.30;;
62535;SDS011;63050;47.514;18.920;2023-06-19T18:08:35;11.40;;;5.60;;
62535;SDS011;63050;47.514;18.920;2023-06-19T18:13:36;8.60;;;5.40;;
62535;SDS011;63050;47.514;18.920;2023-06-19T18:18:37;8.20;;;5.30;;
62535;SDS011;63050;47.514;18.920;2023-06-19T18:23:37;7.70;;;4.90;;
62535;SDS011;63050;47.514;18.920;2023-06-19T18:28:39;6.70;;;5.30;;
62535;SDS011;63050;47.514;18.920;2023-06-19T18:33:39;7.00;;;5.30;;
62535;SDS011;63050;47.514;18.920;2023-06-19T18:38:40;9.20;;;5.10;;
62535;SDS011;63050;47.514;18.920;2023-06-19T18:43:41;5.90;;;5.30;;
62535;SDS011;63050;47.514;18.920;2023-06-19T18:48:42;8.70;;;5.60;;
62535;SDS011;63050;47.514;18.920;2023-06-19T18:53:44;7.40;;;5.60;;
62535;SDS011;63050;47.514;18.920;2023-06-19T18:58:45;6.60;;;5.10;;
62535;SDS011;63050;47.514;18.920;2023-06-19T19:03:46;6.50;;;5.30;;
62535;SDS011;63050;47.514;18.920;2023-06-19T19:08:47;12.00;;;6.00;;
62535;SDS011;63050;47.514;18.920;2023-06-19T19:13:54;12.60;;;5.40;;
62535;SDS011;63050;47.514;18.920;2023-06-19T19:18:55;10.70;;;6.00;;
62535;SDS011;63050;47.514;18.920;2023-06-19T19:23:56;7.40;;;5.50;;
62535;SDS011;63050;47.514;18.920;2023-06-19T19:28:57;9.90;;;6.30;;
62535;SDS011;63050;47.514;18.920;2023-06-19T19:33:59;5.80;;;5.20;;
62535;SDS011;63050;47.514;18.920;2023-06-19T19:39:00;6.10;;;5.10;;
62535;SDS011;63050;47.514;18.920;2023-06-19T19:44:01;8.20;;;5.30;;
62535;SDS011;63050;47.514;18.920;2023-06-19T19:49:02;6.10;;;5.30;;
62535;SDS011;63050;47.514;18.920;2023-06-19T19:54:03;6.50;;;5.10;;
62535;SDS011;63050;47.514;18.920;2023-06-19T19:59:05;8.70;;;5.50;;
62535;SDS011;63050;47.514;18.920;2023-06-19T20:04:25;6.40;;;5.40;;
62535;SDS011;63050;47.514;18.920;2023-06-19T20:09:26;12.70;;;5.90;;
62535;SDS011;63050;47.514;18.920;2023-06-19T20:14:28;9.10;;;5.70;;
62535;SDS011;63050;47.514;18.920;2023-06-19T20:19:30;6.60;;;5.40;;
62535;SDS011;63050;47.514;18.920;2023-06-19T20:24:31;9.70;;;5.40;;
62535;SDS011;63050;47.514;18.920;2023-06-19T20:29:32;7.60;;;5.70;;
62535;SDS011;63050;47.514;18.920;2023-06-19T20:34:34;7.50;;;5.70;;
62535;SDS011;63050;47.514;18.920;2023-06-19T20:39:37;7.90;;;5.70;;
62535;SDS011;63050;47.514;18.920;2023-06-19T20:44:38;6.30;;;5.10;;
62535;SDS011;63050;47.514;18.920;2023-06-19T20:49:39;9.10;;;5.60;;
62535;SDS011;63050;47.514;18.920;2023-06-19T20:54:42;8.10;;;6.30;;
62535;SDS011;63050;47.514;18.920;2023-06-19T20:59:45;8.10;;;5.60;;
62535;SDS011;63050;47.514;18.920;2023-06-19T21:04:47;7.30;;;5.90;;
62535;SDS011;63050;47.514;18.920;2023-06-19T21:09:48;11.70;;;5.90;;
62535;SDS011;63050;47.514;18.920;2023-06-19T21:14:49;6.90;;;5.70;;
62535;SDS011;63050;47.514;18.920;2023-06-19T21:19:49;7.20;;;5.60;;
62535;SDS011;63050;47.514;18.920;2023-06-19T21:24:50;6.40;;;4.80;;
62535;SDS011;63050;47.514;18.920;2023-06-19T21:29:51;8.60;;;5.20;;
62535;SDS011;63050;47.514;18.920;2023-06-19T21:34:52;7.70;;;5.30;;
62535;SDS011;63050;47.514;18.920;2023-06-19T21:39:53;8.30;;;5.30;;
62535;SDS011;63050;47.514;18.920;2023-06-19T21:44:54;6.90;;;5.70;;
62535;SDS011;63050;47.514;18.920;2023-06-19T21:49:54;6.30;;;5.10;;
62535;SDS011;63050;47.514;18.920;2023-06-19T21:54:55;6.00;;;4.40;;
62535;SDS011;63050;47.514;18.920;2023-06-19T21:59:56;6.20;;;4.80;;
62535;SDS011;63050;47.514;18.920;2023-06-19T22:04:57;8.30;;;4.90;;
62535;SDS011;63050;47.514;18.920;2023-06-19T22:10:00;6.00;;;4.60;;
62535;SDS011;63050;47.514;18.920;2023-06-19T22:15:02;7.50;;;4.70;;
62535;SDS011;63050;47.514;18.920;2023-06-19T22:20:03;6.20;;;4.70;;
62535;SDS011;63050;47.514;18.920;2023-06-19T22:25:05;6.90;;;4.70;;
62535;SDS011;63050;47.514;18.920;2023-06-19T22:30:06;5.70;;;4.80;;
62535;SDS011;63050;47.514;18.920;2023-06-19T22:35:07;5.50;;;4.50;;
62535;SDS011;63050;47.514;18.920;2023-06-19T22:40:08;5.60;;;4.90;;
62535;SDS011;63050;47.514;18.920;2023-06-19T22:45:10;5.40;;;4.60;;
62535;SDS011;63050;47.514;18.920;2023-06-19T22:50:12;6.80;;;4.90;;
62535;SDS011;63050;47.514;18.920;2023-06-19T22:55:12;6.30;;;4.60;;
62535;SDS011;63050;47.514;18.920;2023-06-19T23:00:13;5.30;;;4.20;;
62535;SDS011;63050;47.514;18.920;2023-06-19T23:05:14;9.20;;;5.00;;
62535;SDS011;63050;47.514;18.920;2023-06-19T23:10:15;8.40;;;4.60;;
62535;SDS011;63050;47.514;18.920;2023-06-19T23:15:16;6.40;;;5.00;;
62535;SDS011;63050;47.514;18.920;2023-06-19T23:20:16;6.70;;;5.10;;
62535;SDS011;63050;47.514;18.920;2023-06-19T23:25:17;6.30;;;4.50;;
62535;SDS011;63050;47.514;18.920;2023-06-19T23:30:18;7.20;;;5.00;;
62535;SDS011;63050;47.514;18.920;2023-06-19T23:35:19;8.40;;;4.90;;
62535;SDS011;63050;47.514;18.920;2023-06-19T23:40:23;6.60;;;4.90;;
62535;SDS011;63050;47.514;18.920;2023-06-19T23:45:24;7.70;;;5.60;;
62535;SDS011;63050;47.514;18.920;2023-06-19T23:50:26;10.10;;;5.50;;
62535;SDS011;63050;47.514;18.920;2023-06-19T23:55:27;6.80;;;5.90;;
